createdAt,value
2023-02-16T00:01:19.948Z,100.00
2023-02-16T00:03:47.694Z,100.00
2023-02-16T00:06:16.947Z,100.00
2023-02-16T00:08:45.976Z,100.00
2023-02-16T00:11:35.760Z,100.00
2023-02-16T00:14:04.027Z,100.00
2023-02-16T00:16:31.683Z,100.00
2023-02-16T00:18:59.375Z,100.00
2023-02-16T00:21:28.334Z,100.00
2023-02-16T00:23:55.948Z,100.00
2023-02-16T00:26:25.459Z,100.00
2023-02-16T00:28:55.053Z,100.00
2023-02-16T00:31:27.166Z,100.00
2023-02-16T00:33:55.108Z,100.00
2023-02-16T00:36:22.714Z,100.00
2023-02-16T00:38:51.780Z,100.00
2023-02-16T00:41:39.478Z,100.00
2023-02-16T00:44:07.760Z,100.00
2023-02-16T00:46:35.433Z,100.00
2023-02-16T00:49:04.054Z,100.00
2023-02-16T00:51:31.665Z,100.00
2023-02-16T00:54:00.643Z,100.00
2023-02-16T00:56:28.256Z,100.00
2023-02-16T00:58:55.885Z,100.00
2023-02-16T01:01:25.422Z,100.00
2023-02-16T01:03:53.058Z,100.00
2023-02-16T01:06:38.135Z,100.00
2023-02-16T01:09:31.699Z,100.00
2023-02-16T01:11:59.476Z,100.00
2023-02-16T01:14:27.451Z,100.00
2023-02-16T01:16:55.085Z,100.00
2023-02-16T01:19:22.729Z,100.00
2023-02-16T01:21:50.320Z,100.00
2023-02-16T01:24:19.257Z,100.00
2023-02-16T01:26:50.234Z,100.00
2023-02-16T01:29:19.663Z,100.00
2023-02-16T01:31:47.464Z,100.00
2023-02-16T01:34:15.346Z,100.00
2023-02-16T01:36:44.274Z,100.00
2023-02-16T01:39:13.542Z,100.00
2023-02-16T01:41:58.186Z,100.00
2023-02-16T01:44:28.759Z,100.00
2023-02-16T01:47:01.063Z,100.00
2023-02-16T01:49:28.708Z,100.00
2023-02-16T01:51:58.795Z,100.00
2023-02-16T01:54:33.963Z,100.00
2023-02-16T01:57:06.050Z,100.00
2023-02-16T01:59:42.120Z,100.00
2023-02-16T02:02:16.547Z,100.00
2023-02-16T02:05:04.285Z,100.00
2023-02-16T02:07:37.849Z,100.00
2023-02-16T02:10:10.318Z,100.00
2023-02-16T02:12:46.818Z,100.00
2023-02-16T02:15:14.763Z,100.00
2023-02-16T02:17:42.564Z,100.00
2023-02-16T02:20:15.155Z,100.00
2023-02-16T02:23:18.307Z,100.00
2023-02-16T02:26:16.514Z,100.00
2023-02-16T02:28:49.356Z,100.00
2023-02-16T02:31:23.064Z,100.00
2023-02-16T02:33:58.205Z,100.00
2023-02-16T02:36:29.928Z,100.00
2023-02-16T02:39:05.624Z,100.00
2023-02-16T02:41:50.930Z,100.00
2023-02-16T02:44:22.399Z,100.00
2023-02-16T02:46:50.031Z,100.00
2023-02-16T02:49:17.744Z,100.00
2023-02-16T02:51:45.320Z,100.00
2023-02-16T02:54:33.128Z,100.00
2023-02-16T02:57:19.515Z,100.00
2023-02-16T03:00:09.142Z,100.00
2023-02-16T03:02:37.033Z,100.00
2023-02-16T03:05:07.332Z,100.00
2023-02-16T03:07:50.588Z,100.00
2023-02-16T03:10:38.177Z,100.00
2023-02-16T03:13:07.710Z,100.00
2023-02-16T03:15:37.377Z,100.00
2023-02-16T03:18:24.252Z,100.00
2023-02-16T03:21:09.590Z,100.00
2023-02-16T03:23:56.118Z,100.00
2023-02-16T03:26:41.947Z,100.00
2023-02-16T03:29:21.419Z,100.00
2023-02-16T03:31:51.099Z,100.00
2023-02-16T03:34:20.020Z,100.00
2023-02-16T03:36:49.736Z,100.00
2023-02-16T03:39:17.956Z,100.00
2023-02-16T03:41:48.170Z,100.00
2023-02-16T03:44:16.110Z,100.00
2023-02-16T03:46:44.099Z,100.00
2023-02-16T03:49:13.919Z,100.00
2023-02-16T03:51:41.533Z,100.00
2023-02-16T03:54:09.159Z,100.00
2023-02-16T03:56:36.763Z,100.00
2023-02-16T03:59:04.666Z,100.00
2023-02-16T04:01:32.322Z,100.00
2023-02-16T04:03:59.967Z,100.00
2023-02-16T04:06:28.921Z,100.00
2023-02-16T04:08:56.554Z,100.00
2023-02-16T04:11:41.848Z,100.00
2023-02-16T04:14:09.443Z,100.00
2023-02-16T04:16:37.076Z,100.00
2023-02-16T04:19:06.210Z,100.00
2023-02-16T04:21:35.403Z,100.00
2023-02-16T04:24:05.703Z,100.00
2023-02-16T04:26:33.469Z,100.00
2023-02-16T04:29:01.091Z,100.00
2023-02-16T04:31:28.722Z,100.00
2023-02-16T04:33:56.427Z,100.00
2023-02-16T04:36:23.989Z,100.00
2023-02-16T04:38:52.966Z,100.00
2023-02-16T04:41:20.613Z,100.00
2023-02-16T04:43:48.209Z,100.00
2023-02-16T04:46:15.849Z,100.00
2023-02-16T04:48:43.484Z,100.00
2023-02-16T04:51:11.104Z,100.00
2023-02-16T04:53:38.705Z,100.00
2023-02-16T04:56:10.553Z,100.00
2023-02-16T04:58:38.224Z,100.00
2023-02-16T05:01:06.218Z,100.00
2023-02-16T05:03:34.135Z,100.00
2023-02-16T05:06:01.957Z,100.00
2023-02-16T05:08:29.819Z,100.00
2023-02-16T05:11:15.254Z,100.00
2023-02-16T05:14:01.972Z,100.00
2023-02-16T05:16:29.976Z,100.00
2023-02-16T05:18:58.798Z,100.00
2023-02-16T05:21:32.374Z,100.00
2023-02-16T05:24:00.421Z,100.00
2023-02-16T05:26:28.194Z,100.00
2023-02-16T05:28:57.218Z,100.00
2023-02-16T05:31:25.481Z,100.00
2023-02-16T05:33:53.423Z,100.00
2023-02-16T05:36:21.227Z,100.00
2023-02-16T05:38:48.846Z,100.00
2023-02-16T05:41:23.466Z,100.00
2023-02-16T05:43:52.384Z,100.00
2023-02-16T05:46:22.109Z,100.00
2023-02-16T05:48:50.090Z,100.00
2023-02-16T05:51:17.873Z,100.00
2023-02-16T05:53:45.656Z,100.00
2023-02-16T05:56:13.634Z,100.00
2023-02-16T05:58:41.486Z,100.00
2023-02-16T06:01:09.160Z,100.00
2023-02-16T06:03:38.211Z,100.00
2023-02-16T06:06:06.955Z,100.00
2023-02-16T06:08:34.869Z,100.00
2023-02-16T06:11:02.938Z,100.00
2023-02-16T06:13:30.713Z,100.00
2023-02-16T06:15:58.474Z,100.00
2023-02-16T06:18:26.792Z,100.00
2023-02-16T06:20:57.895Z,100.00
2023-02-16T06:23:25.568Z,100.00
2023-02-16T06:25:53.185Z,100.00
2023-02-16T06:28:20.775Z,100.00
2023-02-16T06:30:48.363Z,100.00
2023-02-16T06:33:15.946Z,100.00
2023-02-16T06:35:44.059Z,100.00
2023-02-16T06:38:12.964Z,100.00
2023-02-16T06:40:40.575Z,100.00
2023-02-16T06:43:08.175Z,100.00
2023-02-16T06:45:35.772Z,100.00
2023-02-16T06:48:03.358Z,100.00
2023-02-16T06:50:30.919Z,100.00
2023-02-16T06:52:58.486Z,100.00
2023-02-16T06:55:27.418Z,100.00
2023-02-16T06:57:55.108Z,100.00
2023-02-16T07:00:23.261Z,100.00
2023-02-16T07:02:51.260Z,100.00
2023-02-16T07:05:19.078Z,100.00
2023-02-16T07:07:46.684Z,100.00
2023-02-16T07:10:14.393Z,100.00
2023-02-16T07:12:43.364Z,100.00
2023-02-16T07:15:11.403Z,100.00
2023-02-16T07:17:39.187Z,100.00
2023-02-16T07:20:08.090Z,100.00
2023-02-16T07:22:35.782Z,100.00
2023-02-16T07:25:03.379Z,100.00
2023-02-16T07:27:30.994Z,100.00
2023-02-16T07:29:59.987Z,100.00
2023-02-16T07:32:27.672Z,100.00
2023-02-16T07:34:55.395Z,100.00
2023-02-16T07:37:22.989Z,100.00
2023-02-16T07:39:50.612Z,100.00
2023-02-16T07:42:18.184Z,100.00
2023-02-16T07:44:45.804Z,100.00
2023-02-16T07:47:15.408Z,100.00
2023-02-16T07:49:43.034Z,100.00
2023-02-16T07:52:10.626Z,100.00
2023-02-16T07:54:38.296Z,100.00
2023-02-16T07:57:05.921Z,100.00
2023-02-16T07:59:33.761Z,100.00
2023-02-16T08:02:01.448Z,100.00
2023-02-16T08:04:30.451Z,100.00
2023-02-16T08:06:58.332Z,100.00
2023-02-16T08:09:26.085Z,100.00
2023-02-16T08:11:53.699Z,100.00
2023-02-16T08:14:21.315Z,100.00
2023-02-16T08:16:51.421Z,100.00
2023-02-16T08:19:21.204Z,100.00
2023-02-16T08:21:51.659Z,100.00
2023-02-16T08:24:19.276Z,100.00
2023-02-16T08:26:49.773Z,100.00
2023-02-16T08:29:18.647Z,100.00
2023-02-16T08:31:47.130Z,100.00
2023-02-16T08:34:15.802Z,100.00
2023-02-16T08:36:45.530Z,100.00
2023-02-16T08:39:16.486Z,100.00
2023-02-16T08:41:45.038Z,100.00
2023-02-16T08:44:13.753Z,100.00
2023-02-16T08:46:42.984Z,100.00
2023-02-16T08:49:11.752Z,100.00
2023-02-16T08:51:42.361Z,100.00
2023-02-16T08:54:10.974Z,100.00
2023-02-16T08:56:39.919Z,100.00
2023-02-16T08:59:07.536Z,100.00
2023-02-16T09:01:35.915Z,100.00
2023-02-16T09:04:03.611Z,98.40
2023-02-16T09:06:31.219Z,98.61
2023-02-16T09:08:59.146Z,100.00
2023-02-16T09:11:27.772Z,100.00
2023-02-16T09:13:57.447Z,99.21
2023-02-16T09:16:27.929Z,100.00
2023-02-16T09:18:57.276Z,100.00
2023-02-16T09:21:26.909Z,100.00
2023-02-16T09:23:56.504Z,100.00
2023-02-16T09:26:25.880Z,100.00
2023-02-16T09:28:53.924Z,100.00
2023-02-16T09:31:26.352Z,100.00
2023-02-16T09:33:56.114Z,100.00
2023-02-16T09:36:24.119Z,100.00
2023-02-16T09:38:51.756Z,94.90
2023-02-16T09:41:27.768Z,96.42
2023-02-16T09:43:59.015Z,95.41
2023-02-16T09:46:30.310Z,93.06
2023-02-16T09:48:58.803Z,93.84
2023-02-16T09:51:34.478Z,90.31
2023-02-16T09:54:09.774Z,84.72
2023-02-16T09:56:39.730Z,85.98
2023-02-16T09:59:12.675Z,85.23
2023-02-16T10:01:46.730Z,85.89
2023-02-16T10:04:28.495Z,83.96
2023-02-16T10:07:03.972Z,82.84
2023-02-16T10:09:33.938Z,85.86
2023-02-16T10:12:04.956Z,87.18
2023-02-16T10:14:37.081Z,85.47
2023-02-16T10:17:12.523Z,82.06
2023-02-16T10:19:43.110Z,83.78
2023-02-16T10:22:17.299Z,79.64
2023-02-16T10:24:49.836Z,78.19
2023-02-16T10:27:17.446Z,71.39
2023-02-16T10:29:45.198Z,72.15
2023-02-16T10:32:23.673Z,69.50
2023-02-16T10:34:52.602Z,68.92
2023-02-16T10:37:28.336Z,64.37
2023-02-16T10:40:04.885Z,63.29
2023-02-16T10:42:41.523Z,60.78
2023-02-16T10:45:20.295Z,58.72
2023-02-16T10:47:49.512Z,57.82
2023-02-16T10:50:23.396Z,57.31
2023-02-16T10:52:52.911Z,55.58
2023-02-16T10:55:21.013Z,60.11
2023-02-16T10:57:55.925Z,57.08
2023-02-16T11:00:30.106Z,55.18
2023-02-16T11:03:03.680Z,56.48
2023-02-16T11:05:38.159Z,55.28
2023-02-16T11:08:10.790Z,60.31
2023-02-16T11:10:43.063Z,59.81
2023-02-16T11:13:23.660Z,54.22
2023-02-16T11:15:54.507Z,51.75
2023-02-16T11:18:30.783Z,52.89
2023-02-16T11:20:59.466Z,53.88
2023-02-16T11:23:28.957Z,54.67
2023-02-16T11:25:58.824Z,53.26
2023-02-16T11:28:32.767Z,53.36
2023-02-16T11:31:12.857Z,52.06
2023-02-16T11:33:43.071Z,49.45
2023-02-16T11:36:32.703Z,52.70
2023-02-16T11:39:03.229Z,55.66
2023-02-16T11:41:33.391Z,53.64
2023-02-16T11:44:02.003Z,52.90
2023-02-16T11:46:30.728Z,52.55
2023-02-16T11:49:28.256Z,48.98
2023-02-16T11:51:55.906Z,49.75
2023-02-16T11:54:41.480Z,50.06
2023-02-16T11:57:11.025Z,47.45
2023-02-16T11:59:40.386Z,48.59
2023-02-16T12:02:42.323Z,47.77
2023-02-16T12:05:26.100Z,47.61
2023-02-16T12:08:07.464Z,45.57
2023-02-16T12:10:40.090Z,45.05
2023-02-16T12:13:14.160Z,47.23
2023-02-16T12:15:46.881Z,47.04
2023-02-16T12:18:27.897Z,47.35
2023-02-16T12:21:00.866Z,46.77
2023-02-16T12:23:39.242Z,45.26
2023-02-16T12:26:21.472Z,44.19
2023-02-16T12:28:53.708Z,45.48
2023-02-16T12:31:28.761Z,44.59
2023-02-16T12:34:03.840Z,46.01
2023-02-16T12:36:40.772Z,43.05
2023-02-16T12:39:18.334Z,44.22
2023-02-16T12:41:55.134Z,45.50
2023-02-16T12:44:29.520Z,40.63
2023-02-16T12:47:02.857Z,44.71
2023-02-16T12:49:34.499Z,44.80
2023-02-16T12:52:07.458Z,45.87
2023-02-16T12:54:39.421Z,46.36
2023-02-16T12:57:10.784Z,37.76
2023-02-16T12:59:40.708Z,40.60
2023-02-16T13:02:14.448Z,44.78
2023-02-16T13:04:45.708Z,44.21
2023-02-16T13:07:18.214Z,42.25
2023-02-16T13:09:53.464Z,43.71
2023-02-16T13:12:28.682Z,43.89
2023-02-16T13:15:04.340Z,43.04
2023-02-16T13:17:34.419Z,41.70
2023-02-16T13:20:03.526Z,40.11
2023-02-16T13:22:45.064Z,41.53
2023-02-16T13:25:49.165Z,39.97
2023-02-16T13:28:34.060Z,40.49
2023-02-16T13:31:12.493Z,45.58
2023-02-16T13:33:57.340Z,42.22
2023-02-16T13:36:35.985Z,43.25
2023-02-16T13:39:26.419Z,41.66
2023-02-16T13:42:22.766Z,39.30
2023-02-16T13:44:52.857Z,40.14
2023-02-16T13:47:24.744Z,42.85
2023-02-16T13:49:58.581Z,38.53
2023-02-16T13:52:33.463Z,41.05
2023-02-16T13:55:04.417Z,42.00
2023-02-16T13:58:04.632Z,39.01
2023-02-16T14:00:35.524Z,41.26
2023-02-16T14:03:05.894Z,43.97
2023-02-16T14:05:35.838Z,37.72
2023-02-16T14:08:16.254Z,41.64
2023-02-16T14:11:08.604Z,41.04
2023-02-16T14:13:46.637Z,40.81
2023-02-16T14:16:29.089Z,36.59
2023-02-16T14:18:58.761Z,37.42
2023-02-16T14:21:32.382Z,39.88
2023-02-16T14:24:01.321Z,41.36
2023-02-16T14:26:31.157Z,40.63
2023-02-16T14:29:12.549Z,36.61
2023-02-16T14:31:44.984Z,37.40
2023-02-16T14:34:18.000Z,37.17
2023-02-16T14:37:11.987Z,37.60
2023-02-16T14:40:03.997Z,40.43
2023-02-16T14:42:31.961Z,36.75
2023-02-16T14:45:12.040Z,34.82
2023-02-16T14:47:48.838Z,36.71
2023-02-16T14:50:31.833Z,34.12
2023-02-16T14:53:21.629Z,36.03
2023-02-16T14:56:18.358Z,35.85
2023-02-16T14:58:53.155Z,35.32
2023-02-16T15:01:21.263Z,39.09
2023-02-16T15:03:50.802Z,39.01
2023-02-16T15:06:31.108Z,38.57
2023-02-16T15:09:00.819Z,35.24
2023-02-16T15:11:34.228Z,38.80
2023-02-16T15:14:09.421Z,39.76
2023-02-16T15:16:40.430Z,37.10
2023-02-16T15:19:12.214Z,38.43
2023-02-16T15:21:40.189Z,38.71
2023-02-16T15:24:22.291Z,40.07
2023-02-16T15:26:55.969Z,39.07
2023-02-16T15:29:27.457Z,40.08
2023-02-16T15:31:55.901Z,40.59
2023-02-16T15:34:30.599Z,39.00
2023-02-16T15:36:58.155Z,40.18
2023-02-16T15:39:42.633Z,40.49
2023-02-16T15:42:21.561Z,40.18
2023-02-16T15:44:50.749Z,41.12
2023-02-16T15:47:23.274Z,41.45
2023-02-16T15:49:51.221Z,41.23
2023-02-16T15:52:21.567Z,42.36
2023-02-16T15:54:49.565Z,41.47
2023-02-16T15:57:21.235Z,41.81
2023-02-16T15:59:52.952Z,44.03
2023-02-16T16:02:21.791Z,43.19
2023-02-16T16:04:54.990Z,42.67
2023-02-16T16:07:27.636Z,42.67
2023-02-16T16:09:56.586Z,45.14
2023-02-16T16:12:24.728Z,41.72
2023-02-16T16:14:56.270Z,42.99
2023-02-16T16:17:28.074Z,42.84
2023-02-16T16:19:56.426Z,43.39
2023-02-16T16:22:35.079Z,42.55
2023-02-16T16:25:04.294Z,42.87
2023-02-16T16:27:33.605Z,43.61
2023-02-16T16:30:18.777Z,43.79
2023-02-16T16:32:46.852Z,43.87
2023-02-16T16:35:22.755Z,42.31
2023-02-16T16:37:53.410Z,44.02
2023-02-16T16:40:23.499Z,44.90
2023-02-16T16:43:09.027Z,43.64
2023-02-16T16:45:40.687Z,43.39
2023-02-16T16:48:10.501Z,45.50
2023-02-16T16:50:39.829Z,45.39
2023-02-16T16:53:51.859Z,43.87
2023-02-16T16:56:20.052Z,44.03
2023-02-16T16:58:50.224Z,45.43
2023-02-16T17:01:20.381Z,45.56
2023-02-16T17:03:48.084Z,44.20
2023-02-16T17:06:15.706Z,43.55
2023-02-16T17:08:43.288Z,45.31
2023-02-16T17:11:13.768Z,44.91
2023-02-16T17:13:41.417Z,44.60
2023-02-16T17:16:12.341Z,44.64
2023-02-16T17:18:41.274Z,45.34
2023-02-16T17:21:11.699Z,46.06
2023-02-16T17:23:45.228Z,45.30
2023-02-16T17:26:18.051Z,45.73
2023-02-16T17:28:45.649Z,44.98
2023-02-16T17:31:13.279Z,45.87
2023-02-16T17:33:43.401Z,46.31
2023-02-16T17:36:15.100Z,46.89
2023-02-16T17:38:42.932Z,46.40
2023-02-16T17:41:18.424Z,46.85
2023-02-16T17:43:46.020Z,47.16
2023-02-16T17:46:14.714Z,45.61
2023-02-16T17:48:43.811Z,46.47
2023-02-16T17:51:14.908Z,47.17
2023-02-16T17:53:42.482Z,46.36
2023-02-16T17:56:11.944Z,47.49
2023-02-16T17:58:40.149Z,47.32
2023-02-16T18:01:08.252Z,47.05
2023-02-16T18:03:35.812Z,47.75
2023-02-16T18:06:05.258Z,46.23
2023-02-16T18:08:33.076Z,47.71
2023-02-16T18:11:02.794Z,47.28
2023-02-16T18:13:30.465Z,48.22
2023-02-16T18:15:58.746Z,48.76
2023-02-16T18:18:26.355Z,47.96
2023-02-16T18:20:54.419Z,48.92
2023-02-16T18:23:23.323Z,48.42
2023-02-16T18:25:50.893Z,49.58
2023-02-16T18:28:21.103Z,49.78
2023-02-16T18:30:49.304Z,49.72
2023-02-16T18:33:17.143Z,49.57
2023-02-16T18:35:44.870Z,49.78
2023-02-16T18:38:12.445Z,50.06
2023-02-16T18:40:42.522Z,49.79
2023-02-16T18:43:11.429Z,50.02
2023-02-16T18:45:39.390Z,49.33
2023-02-16T18:48:07.219Z,50.41
2023-02-16T18:50:35.135Z,49.47
2023-02-16T18:53:02.704Z,50.26
2023-02-16T18:55:33.017Z,49.96
2023-02-16T18:58:02.990Z,50.50
2023-02-16T19:00:30.884Z,50.24
2023-02-16T19:02:58.588Z,50.19
2023-02-16T19:05:26.354Z,49.59
2023-02-16T19:07:53.882Z,49.88
2023-02-16T19:10:21.632Z,50.36
2023-02-16T19:12:49.194Z,50.26
2023-02-16T19:15:18.315Z,50.32
2023-02-16T19:17:45.860Z,49.85
2023-02-16T19:20:18.039Z,50.99
2023-02-16T19:22:45.619Z,49.76
2023-02-16T19:25:13.220Z,51.42
2023-02-16T19:27:40.775Z,50.47
2023-02-16T19:30:09.211Z,50.85
2023-02-16T19:32:39.351Z,51.44
2023-02-16T19:35:07.309Z,50.90
2023-02-16T19:37:35.158Z,50.80
2023-02-16T19:40:02.800Z,51.09
2023-02-16T19:42:30.390Z,50.93
2023-02-16T19:44:57.916Z,51.13
2023-02-16T19:47:25.530Z,51.54
2023-02-16T19:49:54.568Z,51.14
2023-02-16T19:52:22.211Z,51.27
2023-02-16T19:54:49.839Z,50.94
2023-02-16T19:57:17.428Z,51.38
2023-02-16T19:59:45.123Z,50.73
2023-02-16T20:02:14.750Z,51.34
2023-02-16T20:04:42.372Z,51.53
2023-02-16T20:07:11.369Z,51.17
2023-02-16T20:09:39.067Z,52.18
2023-02-16T20:12:07.303Z,51.90
2023-02-16T20:14:34.959Z,51.03
2023-02-16T20:17:02.556Z,52.45
2023-02-16T20:19:30.188Z,52.70
2023-02-16T20:21:57.757Z,51.89
2023-02-16T20:24:26.705Z,52.19
2023-02-16T20:26:54.349Z,52.20
2023-02-16T20:29:22.084Z,52.53
2023-02-16T20:31:51.768Z,52.70
2023-02-16T20:34:19.526Z,53.08
2023-02-16T20:36:47.109Z,52.12
2023-02-16T20:39:15.086Z,53.10
2023-02-16T20:41:44.333Z,52.58
2023-02-16T20:44:12.644Z,52.97
2023-02-16T20:46:41.692Z,53.49
2023-02-16T20:49:10.116Z,52.48
2023-02-16T20:51:38.548Z,52.64
2023-02-16T20:54:06.719Z,51.56
2023-02-16T20:56:34.507Z,52.24
2023-02-16T20:59:03.755Z,52.27
2023-02-16T21:01:37.083Z,52.64
2023-02-16T21:04:05.758Z,52.11
2023-02-16T21:06:34.055Z,52.45
2023-02-16T21:09:02.063Z,51.87
2023-02-16T21:11:29.724Z,52.32
2023-02-16T21:13:58.233Z,52.19
2023-02-16T21:16:27.288Z,51.59
2023-02-16T21:18:54.983Z,51.41
2023-02-16T21:21:23.924Z,52.77
2023-02-16T21:23:52.690Z,51.84
2023-02-16T21:26:25.864Z,53.03
2023-02-16T21:28:54.299Z,51.40
2023-02-16T21:31:24.558Z,52.03
2023-02-16T21:33:53.843Z,52.66
2023-02-16T21:36:23.054Z,52.71
2023-02-16T21:38:50.955Z,51.93
2023-02-16T21:41:25.149Z,53.08
2023-02-16T21:43:58.526Z,52.53
2023-02-16T21:46:26.641Z,52.70
2023-02-16T21:48:55.196Z,53.08
2023-02-16T21:51:25.084Z,52.75
2023-02-16T21:53:53.271Z,52.31
2023-02-16T21:56:38.984Z,52.78
2023-02-16T21:59:08.732Z,52.31
2023-02-16T22:01:37.969Z,52.02
2023-02-16T22:04:07.360Z,52.19
2023-02-16T22:06:37.339Z,51.40
2023-02-16T22:09:07.266Z,52.23
2023-02-16T22:11:34.844Z,52.35
2023-02-16T22:14:03.004Z,52.38
2023-02-16T22:16:31.782Z,52.16
2023-02-16T22:19:00.389Z,52.83
2023-02-16T22:21:30.072Z,51.80
2023-02-16T22:24:00.695Z,52.63
2023-02-16T22:26:30.518Z,51.97
2023-02-16T22:28:58.332Z,51.75
2023-02-16T22:31:27.667Z,53.08
2023-02-16T22:33:56.930Z,53.19
2023-02-16T22:36:24.906Z,52.77
2023-02-16T22:38:54.555Z,53.13
2023-02-16T22:41:22.744Z,52.56
2023-02-16T22:43:53.163Z,51.79
2023-02-16T22:46:21.264Z,52.19
2023-02-16T22:48:48.957Z,53.38
2023-02-16T22:51:17.866Z,53.21
2023-02-16T22:53:45.521Z,53.38
2023-02-16T22:56:16.251Z,52.94
2023-02-16T22:58:44.242Z,52.35
2023-02-16T23:01:13.146Z,53.68
2023-02-16T23:03:40.986Z,52.69
2023-02-16T23:06:13.611Z,52.95
2023-02-16T23:08:41.217Z,52.79
2023-02-16T23:11:08.829Z,52.29
2023-02-16T23:13:38.124Z,51.74
2023-02-16T23:16:06.905Z,52.36
2023-02-16T23:18:34.896Z,52.35
2023-02-16T23:21:06.999Z,52.19
2023-02-16T23:23:34.642Z,52.64
2023-02-16T23:26:02.343Z,52.58
2023-02-16T23:28:29.979Z,53.08
2023-02-16T23:30:59.051Z,53.27
2023-02-16T23:33:26.837Z,53.40
2023-02-16T23:35:55.852Z,53.64
2023-02-16T23:38:23.744Z,53.77
2023-02-16T23:40:56.631Z,53.18
2023-02-16T23:43:24.396Z,53.79
2023-02-16T23:45:52.077Z,53.49
2023-02-16T23:48:21.352Z,53.48
2023-02-16T23:50:48.963Z,53.91
2023-02-16T23:53:16.550Z,53.93
2023-02-16T23:55:44.179Z,54.05
2023-02-16T23:58:11.803Z,54.27
